sensor_id;sensor_type;location;lat;lon;timestamp;P1;durP1;ratioP1;P2;durP2;ratioP2
45909;SDS011;31622;55.416;37.840;2023-04-07T00:02:18;4.35;;;1.38;;
45909;SDS011;31622;55.416;37.840;2023-04-07T00:04:44;5.43;;;1.63;;
45909;SDS011;31622;55.416;37.840;2023-04-07T00:07:10;3.35;;;1.60;;
45909;SDS011;31622;55.416;37.840;2023-04-07T00:09:35;3.45;;;1.38;;
45909;SDS011;31622;55.416;37.840;2023-04-07T00:12:01;3.78;;;1.35;;
45909;SDS011;31622;55.416;37.840;2023-04-07T00:14:27;3.03;;;1.55;;
45909;SDS011;31622;55.416;37.840;2023-04-07T00:16:53;3.13;;;1.30;;
45909;SDS011;31622;55.416;37.840;2023-04-07T00:19:18;3.15;;;1.65;;
45909;SDS011;31622;55.416;37.840;2023-04-07T00:21:44;5.78;;;1.67;;
45909;SDS011;31622;55.416;37.840;2023-04-07T00:24:10;3.90;;;1.67;;
45909;SDS011;31622;55.416;37.840;2023-04-07T00:26:36;4.45;;;1.48;;
45909;SDS011;31622;55.416;37.840;2023-04-07T00:29:02;3.83;;;1.42;;
45909;SDS011;31622;55.416;37.840;2023-04-07T00:31:28;3.55;;;1.77;;
45909;SDS011;31622;55.416;37.840;2023-04-07T00:33:53;3.78;;;1.75;;
45909;SDS011;31622;55.416;37.840;2023-04-07T00:36:20;6.43;;;1.60;;
45909;SDS011;31622;55.416;37.840;2023-04-07T00:38:46;3.53;;;1.60;;
45909;SDS011;31622;55.416;37.840;2023-04-07T00:41:11;4.40;;;1.65;;
45909;SDS011;31622;55.416;37.840;2023-04-07T00:43:37;4.95;;;2.45;;
45909;SDS011;31622;55.416;37.840;2023-04-07T00:46:03;3.97;;;1.75;;
45909;SDS011;31622;55.416;37.840;2023-04-07T00:48:30;9.13;;;2.72;;
45909;SDS011;31622;55.416;37.840;2023-04-07T00:50:55;7.38;;;2.35;;
45909;SDS011;31622;55.416;37.840;2023-04-07T00:53:21;5.13;;;2.65;;
45909;SDS011;31622;55.416;37.840;2023-04-07T00:55:47;4.70;;;1.98;;
45909;SDS011;31622;55.416;37.840;2023-04-07T00:58:13;7.00;;;2.33;;
45909;SDS011;31622;55.416;37.840;2023-04-07T01:00:48;3.95;;;2.40;;
45909;SDS011;31622;55.416;37.840;2023-04-07T01:03:20;4.10;;;2.30;;
45909;SDS011;31622;55.416;37.840;2023-04-07T01:05:53;5.85;;;2.45;;
45909;SDS011;31622;55.416;37.840;2023-04-07T01:08:25;5.50;;;3.08;;
45909;SDS011;31622;55.416;37.840;2023-04-07T01:14:04;5.30;;;3.00;;
45909;SDS011;31622;55.416;37.840;2023-04-07T01:16:41;5.93;;;3.50;;
45909;SDS011;31622;55.416;37.840;2023-04-07T01:19:14;8.35;;;3.20;;
45909;SDS011;31622;55.416;37.840;2023-04-07T01:21:51;5.55;;;3.10;;
45909;SDS011;31622;55.416;37.840;2023-04-07T01:27:28;5.63;;;3.45;;
45909;SDS011;31622;55.416;37.840;2023-04-07T01:30:03;4.90;;;3.20;;
45909;SDS011;31622;55.416;37.840;2023-04-07T01:32:29;5.50;;;3.47;;
45909;SDS011;31622;55.416;37.840;2023-04-07T01:34:56;4.80;;;3.10;;
45909;SDS011;31622;55.416;37.840;2023-04-07T01:37:23;4.40;;;2.95;;
45909;SDS011;31622;55.416;37.840;2023-04-07T01:39:51;5.40;;;3.00;;
45909;SDS011;31622;55.416;37.840;2023-04-07T01:42:17;10.10;;;3.30;;
45909;SDS011;31622;55.416;37.840;2023-04-07T01:44:43;5.88;;;3.30;;
45909;SDS011;31622;55.416;37.840;2023-04-07T01:47:10;5.57;;;2.72;;
45909;SDS011;31622;55.416;37.840;2023-04-07T01:49:36;5.65;;;3.10;;
45909;SDS011;31622;55.416;37.840;2023-04-07T01:52:03;4.32;;;3.05;;
45909;SDS011;31622;55.416;37.840;2023-04-07T01:54:29;5.00;;;3.00;;
45909;SDS011;31622;55.416;37.840;2023-04-07T01:56:55;5.72;;;3.22;;
45909;SDS011;31622;55.416;37.840;2023-04-07T01:59:21;6.57;;;3.28;;
45909;SDS011;31622;55.416;37.840;2023-04-07T02:01:47;6.07;;;3.05;;
45909;SDS011;31622;55.416;37.840;2023-04-07T02:06:52;4.32;;;2.92;;
45909;SDS011;31622;55.416;37.840;2023-04-07T02:09:29;8.07;;;3.25;;
45909;SDS011;31622;55.416;37.840;2023-04-07T02:11:57;5.68;;;2.83;;
45909;SDS011;31622;55.416;37.840;2023-04-07T02:14:26;4.40;;;2.70;;
45909;SDS011;31622;55.416;37.840;2023-04-07T02:17:01;7.72;;;3.42;;
45909;SDS011;31622;55.416;37.840;2023-04-07T02:19:28;6.63;;;3.17;;
45909;SDS011;31622;55.416;37.840;2023-04-07T02:21:54;5.32;;;2.70;;
45909;SDS011;31622;55.416;37.840;2023-04-07T02:24:20;4.60;;;2.95;;
45909;SDS011;31622;55.416;37.840;2023-04-07T02:26:47;5.47;;;2.92;;
45909;SDS011;31622;55.416;37.840;2023-04-07T02:29:12;4.85;;;2.97;;
45909;SDS011;31622;55.416;37.840;2023-04-07T02:31:38;7.47;;;3.20;;
45909;SDS011;31622;55.416;37.840;2023-04-07T02:34:04;5.35;;;2.63;;
45909;SDS011;31622;55.416;37.840;2023-04-07T02:36:31;4.03;;;2.42;;
45909;SDS011;31622;55.416;37.840;2023-04-07T02:38:57;6.35;;;2.67;;
45909;SDS011;31622;55.416;37.840;2023-04-07T02:41:23;6.13;;;3.15;;
45909;SDS011;31622;55.416;37.840;2023-04-07T02:43:48;4.22;;;2.70;;
45909;SDS011;31622;55.416;37.840;2023-04-07T02:46:14;4.43;;;2.85;;
45909;SDS011;31622;55.416;37.840;2023-04-07T02:48:40;4.38;;;2.88;;
45909;SDS011;31622;55.416;37.840;2023-04-07T02:51:08;5.97;;;3.20;;
45909;SDS011;31622;55.416;37.840;2023-04-07T02:53:34;5.28;;;3.42;;
45909;SDS011;31622;55.416;37.840;2023-04-07T02:56:00;6.07;;;2.75;;
45909;SDS011;31622;55.416;37.840;2023-04-07T02:58:26;5.22;;;2.92;;
45909;SDS011;31622;55.416;37.840;2023-04-07T03:00:52;6.03;;;2.95;;
45909;SDS011;31622;55.416;37.840;2023-04-07T03:03:20;6.13;;;2.67;;
45909;SDS011;31622;55.416;37.840;2023-04-07T03:06:01;4.55;;;2.60;;
45909;SDS011;31622;55.416;37.840;2023-04-07T03:08:28;4.65;;;2.95;;
45909;SDS011;31622;55.416;37.840;2023-04-07T03:10:54;5.30;;;2.97;;
45909;SDS011;31622;55.416;37.840;2023-04-07T03:13:25;4.95;;;2.70;;
45909;SDS011;31622;55.416;37.840;2023-04-07T03:15:54;6.57;;;2.70;;
45909;SDS011;31622;55.416;37.840;2023-04-07T03:18:20;6.97;;;3.00;;
45909;SDS011;31622;55.416;37.840;2023-04-07T03:20:47;6.00;;;2.78;;
45909;SDS011;31622;55.416;37.840;2023-04-07T03:23:14;5.35;;;2.88;;
45909;SDS011;31622;55.416;37.840;2023-04-07T03:25:40;6.45;;;3.00;;
45909;SDS011;31622;55.416;37.840;2023-04-07T03:28:08;6.18;;;2.72;;
45909;SDS011;31622;55.416;37.840;2023-04-07T03:30:37;5.05;;;2.70;;
45909;SDS011;31622;55.416;37.840;2023-04-07T03:33:03;5.22;;;2.80;;
45909;SDS011;31622;55.416;37.840;2023-04-07T03:35:30;5.03;;;2.50;;
45909;SDS011;31622;55.416;37.840;2023-04-07T03:37:55;4.28;;;2.22;;
45909;SDS011;31622;55.416;37.840;2023-04-07T03:40:21;7.45;;;3.05;;
45909;SDS011;31622;55.416;37.840;2023-04-07T03:42:47;4.47;;;2.42;;
45909;SDS011;31622;55.416;37.840;2023-04-07T03:45:15;4.20;;;2.30;;
45909;SDS011;31622;55.416;37.840;2023-04-07T03:47:45;5.18;;;2.15;;
45909;SDS011;31622;55.416;37.840;2023-04-07T03:50:12;4.47;;;2.45;;
45909;SDS011;31622;55.416;37.840;2023-04-07T03:52:48;4.93;;;2.63;;
45909;SDS011;31622;55.416;37.840;2023-04-07T03:55:26;4.20;;;2.33;;
45909;SDS011;31622;55.416;37.840;2023-04-07T03:57:57;4.40;;;2.20;;
45909;SDS011;31622;55.416;37.840;2023-04-07T04:00:26;6.88;;;2.30;;
45909;SDS011;31622;55.416;37.840;2023-04-07T04:03:03;3.65;;;2.38;;
45909;SDS011;31622;55.416;37.840;2023-04-07T04:05:31;4.32;;;2.42;;
45909;SDS011;31622;55.416;37.840;2023-04-07T04:07:57;3.67;;;1.95;;
45909;SDS011;31622;55.416;37.840;2023-04-07T04:10:22;4.22;;;2.42;;
45909;SDS011;31622;55.416;37.840;2023-04-07T04:12:51;4.43;;;2.00;;
45909;SDS011;31622;55.416;37.840;2023-04-07T04:15:17;6.50;;;2.20;;
45909;SDS011;31622;55.416;37.840;2023-04-07T04:17:43;5.75;;;2.35;;
45909;SDS011;31622;55.416;37.840;2023-04-07T04:20:09;4.40;;;2.47;;
45909;SDS011;31622;55.416;37.840;2023-04-07T04:22:44;4.22;;;1.85;;
45909;SDS011;31622;55.416;37.840;2023-04-07T04:25:10;4.40;;;2.00;;
45909;SDS011;31622;55.416;37.840;2023-04-07T04:27:38;7.53;;;2.45;;
45909;SDS011;31622;55.416;37.840;2023-04-07T04:30:11;5.07;;;1.98;;
45909;SDS011;31622;55.416;37.840;2023-04-07T04:32:44;3.60;;;1.67;;
45909;SDS011;31622;55.416;37.840;2023-04-07T04:35:10;4.38;;;1.88;;
45909;SDS011;31622;55.416;37.840;2023-04-07T04:37:45;5.40;;;1.85;;
45909;SDS011;31622;55.416;37.840;2023-04-07T04:40:12;4.50;;;2.00;;
45909;SDS011;31622;55.416;37.840;2023-04-07T04:42:39;11.88;;;2.88;;
45909;SDS011;31622;55.416;37.840;2023-04-07T04:45:07;6.40;;;3.35;;
45909;SDS011;31622;55.416;37.840;2023-04-07T04:47:34;14.95;;;7.32;;
45909;SDS011;31622;55.416;37.840;2023-04-07T04:50:01;13.18;;;6.38;;
45909;SDS011;31622;55.416;37.840;2023-04-07T04:52:30;8.95;;;4.47;;
45909;SDS011;31622;55.416;37.840;2023-04-07T04:54:58;9.70;;;3.97;;
45909;SDS011;31622;55.416;37.840;2023-04-07T04:57:25;7.20;;;3.15;;
45909;SDS011;31622;55.416;37.840;2023-04-07T04:59:51;9.07;;;2.70;;
45909;SDS011;31622;55.416;37.840;2023-04-07T05:02:17;8.93;;;2.75;;
45909;SDS011;31622;55.416;37.840;2023-04-07T05:04:42;5.50;;;2.55;;
45909;SDS011;31622;55.416;37.840;2023-04-07T05:07:21;6.10;;;2.17;;
45909;SDS011;31622;55.416;37.840;2023-04-07T05:09:47;4.45;;;2.47;;
45909;SDS011;31622;55.416;37.840;2023-04-07T05:12:15;7.28;;;2.53;;
45909;SDS011;31622;55.416;37.840;2023-04-07T05:14:46;4.32;;;2.10;;
45909;SDS011;31622;55.416;37.840;2023-04-07T05:17:12;4.50;;;2.40;;
45909;SDS011;31622;55.416;37.840;2023-04-07T05:19:38;4.85;;;2.05;;
45909;SDS011;31622;55.416;37.840;2023-04-07T05:22:11;3.40;;;1.75;;
45909;SDS011;31622;55.416;37.840;2023-04-07T05:24:50;2.80;;;1.45;;
45909;SDS011;31622;55.416;37.840;2023-04-07T05:27:16;4.95;;;1.60;;
45909;SDS011;31622;55.416;37.840;2023-04-07T05:29:45;3.72;;;1.60;;
45909;SDS011;31622;55.416;37.840;2023-04-07T05:32:19;4.00;;;1.30;;
45909;SDS011;31622;55.416;37.840;2023-04-07T05:34:46;3.65;;;1.33;;
45909;SDS011;31622;55.416;37.840;2023-04-07T05:37:13;3.45;;;1.38;;
45909;SDS011;31622;55.416;37.840;2023-04-07T05:39:38;2.67;;;1.33;;
45909;SDS011;31622;55.416;37.840;2023-04-07T05:42:07;3.28;;;1.50;;
45909;SDS011;31622;55.416;37.840;2023-04-07T05:44:35;3.88;;;1.70;;
45909;SDS011;31622;55.416;37.840;2023-04-07T05:47:01;2.88;;;1.55;;
45909;SDS011;31622;55.416;37.840;2023-04-07T05:49:31;3.00;;;1.30;;
45909;SDS011;31622;55.416;37.840;2023-04-07T05:52:02;3.78;;;1.23;;
45909;SDS011;31622;55.416;37.840;2023-04-07T05:54:31;1.98;;;1.10;;
45909;SDS011;31622;55.416;37.840;2023-04-07T05:56:59;3.40;;;1.30;;
45909;SDS011;31622;55.416;37.840;2023-04-07T05:59:27;2.50;;;1.40;;
45909;SDS011;31622;55.416;37.840;2023-04-07T06:01:53;3.55;;;1.33;;
45909;SDS011;31622;55.416;37.840;2023-04-07T06:04:19;2.03;;;0.98;;
45909;SDS011;31622;55.416;37.840;2023-04-07T06:06:48;2.85;;;1.33;;
45909;SDS011;31622;55.416;37.840;2023-04-07T06:09:17;2.60;;;1.10;;
45909;SDS011;31622;55.416;37.840;2023-04-07T06:11:42;1.92;;;0.93;;
45909;SDS011;31622;55.416;37.840;2023-04-07T06:14:08;2.70;;;1.10;;
45909;SDS011;31622;55.416;37.840;2023-04-07T06:16:34;3.05;;;0.90;;
45909;SDS011;31622;55.416;37.840;2023-04-07T06:18:59;10.05;;;1.83;;
45909;SDS011;31622;55.416;37.840;2023-04-07T06:21:27;6.65;;;1.85;;
45909;SDS011;31622;55.416;37.840;2023-04-07T06:23:53;2.78;;;1.50;;
45909;SDS011;31622;55.416;37.840;2023-04-07T06:26:19;3.03;;;1.15;;
45909;SDS011;31622;55.416;37.840;2023-04-07T06:28:46;4.88;;;1.10;;
45909;SDS011;31622;55.416;37.840;2023-04-07T06:31:13;3.75;;;1.15;;
45909;SDS011;31622;55.416;37.840;2023-04-07T06:33:38;5.00;;;1.25;;
45909;SDS011;31622;55.416;37.840;2023-04-07T06:36:04;5.18;;;1.33;;
45909;SDS011;31622;55.416;37.840;2023-04-07T06:38:30;2.75;;;1.10;;
45909;SDS011;31622;55.416;37.840;2023-04-07T06:40:56;2.70;;;1.10;;
45909;SDS011;31622;55.416;37.840;2023-04-07T06:43:22;5.22;;;1.88;;
45909;SDS011;31622;55.416;37.840;2023-04-07T06:45:53;5.07;;;1.33;;
45909;SDS011;31622;55.416;37.840;2023-04-07T06:48:19;5.10;;;1.38;;
45909;SDS011;31622;55.416;37.840;2023-04-07T06:50:45;3.10;;;1.30;;
45909;SDS011;31622;55.416;37.840;2023-04-07T06:53:11;4.78;;;1.80;;
45909;SDS011;31622;55.416;37.840;2023-04-07T06:55:37;2.88;;;1.33;;
45909;SDS011;31622;55.416;37.840;2023-04-07T06:58:03;3.83;;;1.17;;
45909;SDS011;31622;55.416;37.840;2023-04-07T07:00:28;4.07;;;1.08;;
45909;SDS011;31622;55.416;37.840;2023-04-07T07:02:55;5.63;;;1.42;;
45909;SDS011;31622;55.416;37.840;2023-04-07T07:05:21;6.63;;;1.70;;
45909;SDS011;31622;55.416;37.840;2023-04-07T07:07:48;4.70;;;1.38;;
45909;SDS011;31622;55.416;37.840;2023-04-07T07:10:14;4.30;;;1.10;;
45909;SDS011;31622;55.416;37.840;2023-04-07T07:12:39;2.40;;;1.10;;
45909;SDS011;31622;55.416;37.840;2023-04-07T07:15:05;4.15;;;1.40;;
45909;SDS011;31622;55.416;37.840;2023-04-07T07:17:31;4.47;;;1.60;;
45909;SDS011;31622;55.416;37.840;2023-04-07T07:19:57;5.10;;;1.48;;
45909;SDS011;31622;55.416;37.840;2023-04-07T07:22:23;3.33;;;1.10;;
45909;SDS011;31622;55.416;37.840;2023-04-07T07:24:49;4.45;;;1.20;;
45909;SDS011;31622;55.416;37.840;2023-04-07T07:27:15;3.97;;;1.45;;
45909;SDS011;31622;55.416;37.840;2023-04-07T07:29:40;2.22;;;1.08;;
45909;SDS011;31622;55.416;37.840;2023-04-07T07:32:06;1.98;;;1.15;;
45909;SDS011;31622;55.416;37.840;2023-04-07T07:34:32;4.82;;;1.00;;
45909;SDS011;31622;55.416;37.840;2023-04-07T07:36:57;3.22;;;0.93;;
45909;SDS011;31622;55.416;37.840;2023-04-07T07:39:24;2.55;;;0.98;;
45909;SDS011;31622;55.416;37.840;2023-04-07T07:41:50;7.55;;;1.52;;
45909;SDS011;31622;55.416;37.840;2023-04-07T07:44:16;2.33;;;1.10;;
45909;SDS011;31622;55.416;37.840;2023-04-07T07:46:44;3.53;;;1.35;;
45909;SDS011;31622;55.416;37.840;2023-04-07T07:49:10;5.25;;;1.77;;
45909;SDS011;31622;55.416;37.840;2023-04-07T07:51:36;3.38;;;1.80;;
45909;SDS011;31622;55.416;37.840;2023-04-07T07:54:02;2.97;;;1.77;;
45909;SDS011;31622;55.416;37.840;2023-04-07T07:56:27;3.78;;;2.45;;
45909;SDS011;31622;55.416;37.840;2023-04-07T07:58:53;3.63;;;2.28;;
45909;SDS011;31622;55.416;37.840;2023-04-07T08:01:19;4.75;;;2.80;;
45909;SDS011;31622;55.416;37.840;2023-04-07T08:03:45;3.92;;;2.70;;
45909;SDS011;31622;55.416;37.840;2023-04-07T08:06:11;5.18;;;2.35;;
45909;SDS011;31622;55.416;37.840;2023-04-07T08:08:37;3.42;;;2.17;;
45909;SDS011;31622;55.416;37.840;2023-04-07T08:11:03;4.65;;;1.90;;
45909;SDS011;31622;55.416;37.840;2023-04-07T08:13:28;3.13;;;1.70;;
45909;SDS011;31622;55.416;37.840;2023-04-07T08:15:54;3.38;;;1.90;;
45909;SDS011;31622;55.416;37.840;2023-04-07T08:18:20;3.42;;;2.15;;
45909;SDS011;31622;55.416;37.840;2023-04-07T08:20:46;4.13;;;2.22;;
45909;SDS011;31622;55.416;37.840;2023-04-07T08:23:12;4.75;;;1.95;;
45909;SDS011;31622;55.416;37.840;2023-04-07T08:25:37;3.40;;;1.83;;
45909;SDS011;31622;55.416;37.840;2023-04-07T08:28:06;3.40;;;1.73;;
45909;SDS011;31622;55.416;37.840;2023-04-07T08:30:31;4.20;;;1.88;;
45909;SDS011;31622;55.416;37.840;2023-04-07T08:32:57;3.35;;;1.60;;
45909;SDS011;31622;55.416;37.840;2023-04-07T08:35:23;3.47;;;1.85;;
45909;SDS011;31622;55.416;37.840;2023-04-07T08:37:48;3.35;;;1.83;;
45909;SDS011;31622;55.416;37.840;2023-04-07T08:40:14;5.00;;;1.73;;
45909;SDS011;31622;55.416;37.840;2023-04-07T08:42:41;9.82;;;1.95;;
45909;SDS011;31622;55.416;37.840;2023-04-07T08:45:10;2.60;;;1.35;;
45909;SDS011;31622;55.416;37.840;2023-04-07T08:47:37;5.22;;;1.65;;
45909;SDS011;31622;55.416;37.840;2023-04-07T08:52:33;2.58;;;1.50;;
45909;SDS011;31622;55.416;37.840;2023-04-07T08:55:00;3.20;;;1.45;;
45909;SDS011;31622;55.416;37.840;2023-04-07T08:57:30;2.60;;;1.20;;
45909;SDS011;31622;55.416;37.840;2023-04-07T08:59:58;3.35;;;1.50;;
45909;SDS011;31622;55.416;37.840;2023-04-07T09:02:32;3.58;;;1.33;;
45909;SDS011;31622;55.416;37.840;2023-04-07T09:05:00;3.50;;;1.40;;
45909;SDS011;31622;55.416;37.840;2023-04-07T09:07:29;2.78;;;1.50;;
45909;SDS011;31622;55.416;37.840;2023-04-07T09:09:55;1.92;;;1.02;;
45909;SDS011;31622;55.416;37.840;2023-04-07T09:12:21;2.80;;;0.98;;
45909;SDS011;31622;55.416;37.840;2023-04-07T09:14:47;2.42;;;1.17;;
45909;SDS011;31622;55.416;37.840;2023-04-07T09:17:12;1.58;;;0.75;;
45909;SDS011;31622;55.416;37.840;2023-04-07T09:19:38;1.42;;;0.80;;
45909;SDS011;31622;55.416;37.840;2023-04-07T09:22:04;1.75;;;0.90;;
45909;SDS011;31622;55.416;37.840;2023-04-07T09:24:30;6.18;;;1.25;;
45909;SDS011;31622;55.416;37.840;2023-04-07T09:27:15;2.28;;;1.02;;
45909;SDS011;31622;55.416;37.840;2023-04-07T09:29:43;3.78;;;1.00;;
45909;SDS011;31622;55.416;37.840;2023-04-07T09:32:10;2.67;;;0.95;;
45909;SDS011;31622;55.416;37.840;2023-04-07T09:34:38;2.78;;;1.15;;
45909;SDS011;31622;55.416;37.840;2023-04-07T09:37:05;2.42;;;0.82;;
45909;SDS011;31622;55.416;37.840;2023-04-07T09:39:31;3.00;;;1.10;;
45909;SDS011;31622;55.416;37.840;2023-04-07T09:41:57;1.73;;;1.05;;
45909;SDS011;31622;55.416;37.840;2023-04-07T09:44:24;1.67;;;0.80;;
45909;SDS011;31622;55.416;37.840;2023-04-07T09:46:56;2.00;;;0.98;;
45909;SDS011;31622;55.416;37.840;2023-04-07T09:49:23;2.90;;;1.13;;
45909;SDS011;31622;55.416;37.840;2023-04-07T09:51:53;1.63;;;0.77;;
45909;SDS011;31622;55.416;37.840;2023-04-07T09:54:33;2.20;;;0.70;;
45909;SDS011;31622;55.416;37.840;2023-04-07T09:57:00;2.42;;;0.80;;
45909;SDS011;31622;55.416;37.840;2023-04-07T09:59:28;8.02;;;1.70;;
45909;SDS011;31622;55.416;37.840;2023-04-07T10:01:54;13.73;;;2.03;;
45909;SDS011;31622;55.416;37.840;2023-04-07T10:04:20;14.43;;;3.22;;
45909;SDS011;31622;55.416;37.840;2023-04-07T10:06:46;15.77;;;2.58;;
45909;SDS011;31622;55.416;37.840;2023-04-07T10:09:12;10.95;;;2.55;;
45909;SDS011;31622;55.416;37.840;2023-04-07T10:11:39;5.70;;;1.42;;
45909;SDS011;31622;55.416;37.840;2023-04-07T10:14:06;8.15;;;2.33;;
45909;SDS011;31622;55.416;37.840;2023-04-07T10:16:34;12.70;;;2.72;;
45909;SDS011;31622;55.416;37.840;2023-04-07T10:19:01;7.63;;;2.22;;
45909;SDS011;31622;55.416;37.840;2023-04-07T10:21:27;2.95;;;1.30;;
45909;SDS011;31622;55.416;37.840;2023-04-07T10:24:03;7.80;;;1.90;;
45909;SDS011;31622;55.416;37.840;2023-04-07T10:26:50;8.13;;;2.30;;
45909;SDS011;31622;55.416;37.840;2023-04-07T10:29:19;6.47;;;2.50;;
45909;SDS011;31622;55.416;37.840;2023-04-07T10:31:45;6.85;;;2.60;;
45909;SDS011;31622;55.416;37.840;2023-04-07T10:34:11;6.35;;;1.98;;
45909;SDS011;31622;55.416;37.840;2023-04-07T10:37:06;7.18;;;2.30;;
45909;SDS011;31622;55.416;37.840;2023-04-07T10:39:38;8.55;;;1.80;;
45909;SDS011;31622;55.416;37.840;2023-04-07T10:42:05;5.55;;;1.95;;
45909;SDS011;31622;55.416;37.840;2023-04-07T10:47:06;2.83;;;1.23;;
45909;SDS011;31622;55.416;37.840;2023-04-07T10:49:33;15.25;;;2.63;;
45909;SDS011;31622;55.416;37.840;2023-04-07T10:54:38;3.58;;;1.08;;
45909;SDS011;31622;55.416;37.840;2023-04-07T10:57:10;3.17;;;1.20;;
45909;SDS011;31622;55.416;37.840;2023-04-07T10:59:39;3.13;;;1.20;;
45909;SDS011;31622;55.416;37.840;2023-04-07T11:04:39;3.83;;;1.50;;
45909;SDS011;31622;55.416;37.840;2023-04-07T11:07:07;2.20;;;0.95;;
45909;SDS011;31622;55.416;37.840;2023-04-07T11:09:32;2.65;;;1.00;;
45909;SDS011;31622;55.416;37.840;2023-04-07T11:11:58;7.07;;;1.88;;
45909;SDS011;31622;55.416;37.840;2023-04-07T11:14:27;2.63;;;0.98;;
45909;SDS011;31622;55.416;37.840;2023-04-07T11:16:57;3.33;;;1.20;;
45909;SDS011;31622;55.416;37.840;2023-04-07T11:19:23;2.67;;;1.00;;
45909;SDS011;31622;55.416;37.840;2023-04-07T11:21:49;3.92;;;1.25;;
45909;SDS011;31622;55.416;37.840;2023-04-07T11:24:34;2.60;;;1.00;;
45909;SDS011;31622;55.416;37.840;2023-04-07T11:27:02;3.75;;;1.30;;
45909;SDS011;31622;55.416;37.840;2023-04-07T11:29:29;3.03;;;1.10;;
45909;SDS011;31622;55.416;37.840;2023-04-07T11:32:00;2.40;;;0.90;;
45909;SDS011;31622;55.416;37.840;2023-04-07T11:34:33;2.90;;;0.90;;
45909;SDS011;31622;55.416;37.840;2023-04-07T11:40:06;4.07;;;1.05;;
45909;SDS011;31622;55.416;37.840;2023-04-07T11:42:36;4.10;;;1.15;;
45909;SDS011;31622;55.416;37.840;2023-04-07T11:45:02;2.88;;;0.70;;
45909;SDS011;31622;55.416;37.840;2023-04-07T11:47:35;3.97;;;0.70;;
45909;SDS011;31622;55.416;37.840;2023-04-07T11:50:01;5.32;;;1.00;;
45909;SDS011;31622;55.416;37.840;2023-04-07T11:52:27;3.17;;;0.60;;
45909;SDS011;31622;55.416;37.840;2023-04-07T11:54:53;2.95;;;0.80;;
45909;SDS011;31622;55.416;37.840;2023-04-07T11:57:25;1.65;;;0.75;;
45909;SDS011;31622;55.416;37.840;2023-04-07T12:02:50;2.20;;;1.02;;
45909;SDS011;31622;55.416;37.840;2023-04-07T12:05:15;3.10;;;1.60;;
45909;SDS011;31622;55.416;37.840;2023-04-07T12:07:51;1.65;;;0.70;;
45909;SDS011;31622;55.416;37.840;2023-04-07T12:10:21;1.65;;;0.80;;
45909;SDS011;31622;55.416;37.840;2023-04-07T12:12:48;2.05;;;0.80;;
45909;SDS011;31622;55.416;37.840;2023-04-07T12:15:14;2.55;;;0.90;;
45909;SDS011;31622;55.416;37.840;2023-04-07T12:17:43;1.63;;;0.60;;
45909;SDS011;31622;55.416;37.840;2023-04-07T12:20:11;4.78;;;1.30;;
45909;SDS011;31622;55.416;37.840;2023-04-07T12:22:37;2.10;;;0.90;;
45909;SDS011;31622;55.416;37.840;2023-04-07T12:25:03;2.05;;;0.80;;
45909;SDS011;31622;55.416;37.840;2023-04-07T12:27:29;3.00;;;0.75;;
45909;SDS011;31622;55.416;37.840;2023-04-07T12:29:55;2.58;;;0.77;;
45909;SDS011;31622;55.416;37.840;2023-04-07T12:32:21;2.45;;;0.90;;
45909;SDS011;31622;55.416;37.840;2023-04-07T12:34:46;3.85;;;1.20;;
45909;SDS011;31622;55.416;37.840;2023-04-07T12:37:12;5.63;;;1.00;;
45909;SDS011;31622;55.416;37.840;2023-04-07T12:39:38;3.30;;;1.30;;
45909;SDS011;31622;55.416;37.840;2023-04-07T12:42:03;5.35;;;1.10;;
45909;SDS011;31622;55.416;37.840;2023-04-07T12:44:29;3.33;;;1.42;;
45909;SDS011;31622;55.416;37.840;2023-04-07T12:46:55;4.55;;;1.00;;
45909;SDS011;31622;55.416;37.840;2023-04-07T12:49:21;3.22;;;0.90;;
45909;SDS011;31622;55.416;37.840;2023-04-07T12:51:48;3.03;;;0.90;;
45909;SDS011;31622;55.416;37.840;2023-04-07T12:54:14;4.13;;;0.90;;
45909;SDS011;31622;55.416;37.840;2023-04-07T12:56:40;3.75;;;1.00;;
45909;SDS011;31622;55.416;37.840;2023-04-07T12:59:06;3.17;;;1.00;;
45909;SDS011;31622;55.416;37.840;2023-04-07T13:01:32;1.25;;;0.73;;
45909;SDS011;31622;55.416;37.840;2023-04-07T13:03:59;2.00;;;0.90;;
45909;SDS011;31622;55.416;37.840;2023-04-07T13:06:26;3.15;;;1.00;;
45909;SDS011;31622;55.416;37.840;2023-04-07T13:08:51;1.30;;;0.70;;
45909;SDS011;31622;55.416;37.840;2023-04-07T13:11:17;2.50;;;0.93;;
45909;SDS011;31622;55.416;37.840;2023-04-07T13:13:43;2.63;;;0.80;;
45909;SDS011;31622;55.416;37.840;2023-04-07T13:16:09;2.60;;;0.85;;
45909;SDS011;31622;55.416;37.840;2023-04-07T13:18:35;3.88;;;0.90;;
45909;SDS011;31622;55.416;37.840;2023-04-07T13:21:00;2.03;;;0.85;;
45909;SDS011;31622;55.416;37.840;2023-04-07T13:23:26;2.03;;;0.70;;
45909;SDS011;31622;55.416;37.840;2023-04-07T13:25:52;3.33;;;0.82;;
45909;SDS011;31622;55.416;37.840;2023-04-07T13:28:18;2.15;;;0.95;;
45909;SDS011;31622;55.416;37.840;2023-04-07T13:30:45;2.60;;;0.60;;
45909;SDS011;31622;55.416;37.840;2023-04-07T13:33:11;1.92;;;0.95;;
45909;SDS011;31622;55.416;37.840;2023-04-07T13:35:37;2.28;;;0.70;;
45909;SDS011;31622;55.416;37.840;2023-04-07T13:38:03;2.17;;;1.02;;
45909;SDS011;31622;55.416;37.840;2023-04-07T13:40:29;1.73;;;0.93;;
45909;SDS011;31622;55.416;37.840;2023-04-07T13:42:55;2.03;;;0.80;;
45909;SDS011;31622;55.416;37.840;2023-04-07T13:45:25;4.18;;;0.90;;
45909;SDS011;31622;55.416;37.840;2023-04-07T13:47:51;3.05;;;0.63;;
45909;SDS011;31622;55.416;37.840;2023-04-07T13:50:17;3.72;;;1.10;;
45909;SDS011;31622;55.416;37.840;2023-04-07T13:52:43;1.45;;;0.70;;
45909;SDS011;31622;55.416;37.840;2023-04-07T13:55:08;3.53;;;0.90;;
45909;SDS011;31622;55.416;37.840;2023-04-07T13:57:34;4.68;;;1.02;;
45909;SDS011;31622;55.416;37.840;2023-04-07T14:00:00;1.35;;;0.80;;
45909;SDS011;31622;55.416;37.840;2023-04-07T14:02:26;1.50;;;0.70;;
45909;SDS011;31622;55.416;37.840;2023-04-07T14:04:54;1.55;;;0.70;;
45909;SDS011;31622;55.416;37.840;2023-04-07T14:07:20;2.72;;;0.85;;
45909;SDS011;31622;55.416;37.840;2023-04-07T14:09:47;4.18;;;1.05;;
45909;SDS011;31622;55.416;37.840;2023-04-07T14:12:13;2.70;;;1.00;;
45909;SDS011;31622;55.416;37.840;2023-04-07T14:14:39;2.42;;;0.65;;
45909;SDS011;31622;55.416;37.840;2023-04-07T14:17:05;1.90;;;0.88;;
45909;SDS011;31622;55.416;37.840;2023-04-07T14:19:30;4.68;;;0.80;;
45909;SDS011;31622;55.416;37.840;2023-04-07T14:21:57;3.20;;;0.88;;
45909;SDS011;31622;55.416;37.840;2023-04-07T14:24:23;3.13;;;0.80;;
45909;SDS011;31622;55.416;37.840;2023-04-07T14:26:49;1.73;;;0.80;;
45909;SDS011;31622;55.416;37.840;2023-04-07T14:29:15;3.25;;;1.60;;
45909;SDS011;31622;55.416;37.840;2023-04-07T14:31:41;3.92;;;1.73;;
45909;SDS011;31622;55.416;37.840;2023-04-07T14:34:07;4.38;;;2.03;;
45909;SDS011;31622;55.416;37.840;2023-04-07T14:36:33;6.63;;;2.80;;
45909;SDS011;31622;55.416;37.840;2023-04-07T14:38:58;6.97;;;2.33;;
45909;SDS011;31622;55.416;37.840;2023-04-07T14:41:25;3.97;;;2.10;;
45909;SDS011;31622;55.416;37.840;2023-04-07T14:43:51;5.47;;;2.42;;
45909;SDS011;31622;55.416;37.840;2023-04-07T14:46:23;6.07;;;2.58;;
45909;SDS011;31622;55.416;37.840;2023-04-07T14:48:49;7.45;;;2.47;;
45909;SDS011;31622;55.416;37.840;2023-04-07T14:51:18;4.10;;;2.42;;
45909;SDS011;31622;55.416;37.840;2023-04-07T14:53:44;5.07;;;2.80;;
45909;SDS011;31622;55.416;37.840;2023-04-07T14:56:10;4.82;;;2.55;;
45909;SDS011;31622;55.416;37.840;2023-04-07T14:58:36;4.43;;;2.65;;
45909;SDS011;31622;55.416;37.840;2023-04-07T15:01:06;5.50;;;2.10;;